Time;durP1;ratioP1;P1;durP2;ratioP2;P2;SDS_P1;SDS_P2;PMS_P1;PMS_P2;Temp;Humidity;BMP_temperature;BMP_pressure;BME280_temperature;BME280_humidity;BME280_pressure;Samples;Min_cycle;Max_cycle;Signal;HPM_P1;HPM_P2
2022/04/06 00:01:36;;;;;;;53.83;44.27;;;;;;;;;;5095011;28;20773;-87
2022/04/06 00:04:05;;;;;;;36.47;32.57;;;;;;;;;;5094940;28;20850;-86
2022/04/06 00:06:32;;;;;;;41.40;37.30;;;;;;;;;;5095055;28;20408;-88
2022/04/06 00:09:00;;;;;;;52.90;47.13;;;;;;;;;;5094784;28;20437;-87
2022/04/06 00:11:27;;;;;;;48.33;43.53;;;;;;;;;;5094712;28;20919;-87
2022/04/06 00:13:55;;;;;;;39.07;35.23;;;;;;;;;;5094686;28;20446;-87
2022/04/06 00:16:22;;;;;;;48.70;43.40;;;;;;;;;;5094985;28;20985;-87
2022/04/06 00:18:49;;;;;;;50.47;45.27;;;;;;;;;;5094936;28;20794;-87
2022/04/06 00:21:19;;;;;;;48.70;43.43;;;;;;;;;;5095118;28;20433;-87
2022/04/06 00:23:46;;;;;;;55.03;49.10;;;;;;;;;;5094314;28;20452;-87
2022/04/06 00:26:14;;;;;;;54.80;47.60;;;;;;;;;;5094571;28;20740;-85
2022/04/06 00:28:41;;;;;;;57.93;48.60;;;;;;;;;;5094517;28;20463;-87
2022/04/06 00:31:08;;;;;;;36.17;32.60;;;;;;;;;;5094583;28;20478;-87
2022/04/06 00:33:36;;;;;;;44.03;39.27;;;;;;;;;;5094181;28;20419;-87
2022/04/06 00:36:03;;;;;;;38.57;35.07;;;;;;;;;;5094499;28;20757;-87
2022/04/06 00:38:32;;;;;;;55.10;46.20;;;;;;;;;;5094453;28;20433;-86
2022/04/06 00:40:59;;;;;;;41.57;36.37;;;;;;;;;;5094531;28;20445;-87
2022/04/06 00:43:27;;;;;;;42.70;38.07;;;;;;;;;;5094514;28;20447;-87
2022/04/06 00:45:54;;;;;;;53.53;47.77;;;;;;;;;;5094352;28;20441;-87
2022/04/06 00:48:21;;;;;;;55.20;49.23;;;;;;;;;;5093974;28;20408;-87
2022/04/06 00:50:49;;;;;;;68.03;51.93;;;;;;;;;;5093816;28;20444;-87
2022/04/06 00:53:16;;;;;;;54.43;44.70;;;;;;;;;;5094361;28;20433;-86
2022/04/06 00:55:45;;;;;;;59.23;49.60;;;;;;;;;;5094127;28;20488;-86
2022/04/06 00:58:13;;;;;;;59.70;50.10;;;;;;;;;;5094766;28;20415;-87
2022/04/06 01:00:40;;;;;;;42.07;37.17;;;;;;;;;;5094842;28;20524;-87
2022/04/06 01:03:07;;;;;;;60.53;51.70;;;;;;;;;;5093921;28;20412;-87
2022/04/06 01:05:35;;;;;;;45.17;39.90;;;;;;;;;;5093940;28;20769;-86
2022/04/06 01:08:02;;;;;;;55.87;49.70;;;;;;;;;;5094512;28;20442;-86
2022/04/06 01:10:30;;;;;;;59.70;52.70;;;;;;;;;;5094211;28;20423;-87
2022/04/06 01:12:59;;;;;;;50.77;44.73;;;;;;;;;;5094302;28;20434;-87
2022/04/06 01:15:27;;;;;;;61.03;52.23;;;;;;;;;;5093813;28;20409;-87
2022/04/06 01:17:54;;;;;;;53.60;47.73;;;;;;;;;;5093693;28;20903;-87
2022/04/06 01:20:21;;;;;;;57.27;43.43;;;;;;;;;;5093782;28;20487;-86
2022/04/06 01:22:50;;;;;;;51.03;45.47;;;;;;;;;;5094055;28;20934;-86
2022/04/06 01:25:18;;;;;;;65.93;55.63;;;;;;;;;;5094360;28;20433;-86
2022/04/06 01:27:45;;;;;;;65.93;50.23;;;;;;;;;;5094013;28;20480;-86
2022/04/06 01:30:13;;;;;;;50.27;43.87;;;;;;;;;;5094019;28;20441;-86
2022/04/06 01:32:40;;;;;;;58.83;51.83;;;;;;;;;;5093971;28;20441;-86
2022/04/06 01:35:08;;;;;;;63.40;55.43;;;;;;;;;;5093992;28;20870;-87
2022/04/06 01:37:36;;;;;;;44.53;36.30;;;;;;;;;;5094019;28;20767;-87
2022/04/06 01:40:06;;;;;;;57.70;51.50;;;;;;;;;;5093788;28;20944;-87
2022/04/06 01:42:34;;;;;;;66.87;53.17;;;;;;;;;;5093879;28;20438;-86
2022/04/06 01:45:01;;;;;;;55.93;46.87;;;;;;;;;;5093508;28;20908;-87
2022/04/06 01:47:28;;;;;;;63.03;55.37;;;;;;;;;;5093705;28;20429;-88
2022/04/06 01:52:41;;;;;;;46.73;37.97;;;;;;;;;;5093528;28;20440;-87
2022/04/06 01:55:10;;;;;;;52.00;42.20;;;;;;;;;;5093490;28;20484;-87
2022/04/06 01:57:38;;;;;;;53.70;45.70;;;;;;;;;;5093677;28;20429;-87
2022/04/06 02:00:09;;;;;;;68.40;48.40;;;;;;;;;;5093361;28;20481;-87
2022/04/06 02:02:37;;;;;;;49.07;43.67;;;;;;;;;;5093909;28;20461;-87
2022/04/06 02:05:04;;;;;;;49.73;43.90;;;;;;;;;;5097025;28;20881;-86
2022/04/06 02:07:32;;;;;;;60.07;47.00;;;;;;;;;;5097011;28;20494;-87
2022/04/06 02:10:00;;;;;;;56.13;42.83;;;;;;;;;;5097337;28;20437;-87
2022/04/06 02:12:29;;;;;;;46.17;41.50;;;;;;;;;;5096957;28;20536;-87
2022/04/06 02:14:57;;;;;;;41.80;37.27;;;;;;;;;;5097070;28;20451;-87
2022/04/06 02:17:28;;;;;;;39.17;34.93;;;;;;;;;;5095891;28;20527;-87
2022/04/06 02:19:56;;;;;;;49.17;43.80;;;;;;;;;;5097213;28;20820;-87
2022/04/06 02:22:23;;;;;;;51.13;44.97;;;;;;;;;;5097028;28;20471;-86
2022/04/06 02:24:51;;;;;;;46.17;39.57;;;;;;;;;;5097065;28;20421;-87
2022/04/06 02:27:18;;;;;;;49.77;40.87;;;;;;;;;;5097212;28;20420;-87
2022/04/06 02:29:47;;;;;;;43.10;38.40;;;;;;;;;;5096760;28;20958;-87
2022/04/06 02:32:14;;;;;;;40.03;35.47;;;;;;;;;;5096718;28;20436;-87
2022/04/06 02:34:42;;;;;;;42.93;38.33;;;;;;;;;;5096756;28;20440;-86
2022/04/06 02:37:10;;;;;;;45.40;39.53;;;;;;;;;;5096383;28;20477;-87
2022/04/06 02:39:37;;;;;;;44.87;38.43;;;;;;;;;;5096225;28;20456;-86
2022/04/06 02:42:05;;;;;;;44.10;38.83;;;;;;;;;;5096731;28;20852;-86
2022/04/06 02:44:32;;;;;;;44.57;39.50;;;;;;;;;;5096777;28;20718;-87
2022/04/06 02:47:01;;;;;;;42.17;35.73;;;;;;;;;;5096647;28;20787;-87
2022/04/06 02:49:29;;;;;;;42.57;38.23;;;;;;;;;;5096245;28;20416;-87
2022/04/06 02:51:56;;;;;;;40.17;35.83;;;;;;;;;;5096612;28;20795;-87
2022/04/06 02:54:23;;;;;;;43.73;34.90;;;;;;;;;;5096727;28;20408;-87
2022/04/06 02:56:51;;;;;;;41.57;34.53;;;;;;;;;;5096088;28;20481;-87
2022/04/06 02:59:18;;;;;;;41.30;36.07;;;;;;;;;;5096372;28;20978;-87
2022/04/06 03:01:45;;;;;;;32.20;28.80;;;;;;;;;;5096189;28;20405;-87
2022/04/06 03:04:14;;;;;;;33.90;30.50;;;;;;;;;;5096402;28;20419;-87
2022/04/06 03:06:41;;;;;;;35.97;32.23;;;;;;;;;;5096055;28;20762;-86
2022/04/06 03:09:09;;;;;;;34.17;30.70;;;;;;;;;;5095907;28;20416;-87
2022/04/06 03:11:36;;;;;;;27.70;25.20;;;;;;;;;;5096166;28;20415;-86
2022/04/06 03:14:05;;;;;;;29.13;26.00;;;;;;;;;;5096198;28;20484;-86
2022/04/06 03:16:32;;;;;;;26.00;23.43;;;;;;;;;;5095805;28;20419;-86
2022/04/06 03:19:00;;;;;;;26.27;24.07;;;;;;;;;;5095670;28;20445;-87
2022/04/06 03:21:28;;;;;;;32.77;27.33;;;;;;;;;;5095925;28;20488;-87
2022/04/06 03:23:56;;;;;;;26.77;24.47;;;;;;;;;;5095789;28;20773;-87
2022/04/06 03:26:23;;;;;;;30.83;28.07;;;;;;;;;;5096090;28;20946;-87
2022/04/06 03:28:51;;;;;;;27.50;24.70;;;;;;;;;;5095579;28;20473;-87
2022/04/06 03:31:18;;;;;;;29.13;26.43;;;;;;;;;;5096159;28;20434;-86
2022/04/06 03:33:45;;;;;;;29.63;26.57;;;;;;;;;;5096260;28;20441;-87
2022/04/06 03:36:13;;;;;;;30.50;27.30;;;;;;;;;;5095924;28;20492;-87
2022/04/06 03:38:41;;;;;;;31.23;26.70;;;;;;;;;;5095380;28;20787;-87
2022/04/06 03:41:10;;;;;;;27.27;24.73;;;;;;;;;;5095150;28;20459;-87
2022/04/06 03:43:38;;;;;;;26.17;23.97;;;;;;;;;;5095383;28;20765;-87
2022/04/06 03:46:05;;;;;;;29.30;26.60;;;;;;;;;;5094888;28;20440;-88
2022/04/06 03:48:32;;;;;;;29.33;25.83;;;;;;;;;;5094914;28;20441;-88
2022/04/06 03:51:00;;;;;;;26.90;24.43;;;;;;;;;;5095523;28;20419;-88
2022/04/06 03:53:27;;;;;;;23.63;21.53;;;;;;;;;;5095202;28;20795;-89
2022/04/06 03:55:56;;;;;;;30.80;27.50;;;;;;;;;;5095298;28;20477;-88
2022/04/06 03:58:23;;;;;;;26.00;23.80;;;;;;;;;;5095351;28;20769;-87
2022/04/06 04:00:51;;;;;;;28.93;25.10;;;;;;;;;;5095034;28;20455;-88
2022/04/06 04:03:18;;;;;;;26.20;23.97;;;;;;;;;;5095312;28;20434;-89
2022/04/06 04:05:45;;;;;;;27.93;25.27;;;;;;;;;;5095098;28;20482;-89
2022/04/06 04:08:13;;;;;;;30.90;26.87;;;;;;;;;;5094691;28;20413;-88
2022/04/06 04:10:40;;;;;;;29.43;26.80;;;;;;;;;;5094683;28;20408;-88
2022/04/06 04:13:11;;;;;;;32.70;29.80;;;;;;;;;;5095002;28;20423;-88
2022/04/06 04:15:38;;;;;;;30.10;27.53;;;;;;;;;;5094999;28;20818;-88
2022/04/06 04:18:06;;;;;;;23.40;21.77;;;;;;;;;;5095140;28;20434;-87
2022/04/06 04:20:33;;;;;;;27.13;24.93;;;;;;;;;;5094921;28;20471;-88
2022/04/06 04:23:00;;;;;;;28.83;26.43;;;;;;;;;;5094826;28;20441;-88
2022/04/06 04:25:28;;;;;;;32.37;29.33;;;;;;;;;;5094461;28;20440;-88
2022/04/06 04:27:55;;;;;;;28.83;26.23;;;;;;;;;;5094727;28;20447;-88
2022/04/06 04:30:24;;;;;;;33.83;30.40;;;;;;;;;;5094654;28;20412;-86
2022/04/06 04:32:51;;;;;;;33.13;29.73;;;;;;;;;;5094644;28;20427;-88
2022/04/06 04:35:19;;;;;;;31.50;28.53;;;;;;;;;;5094561;28;20442;-89
2022/04/06 04:37:46;;;;;;;32.30;29.07;;;;;;;;;;5094781;28;20408;-88
2022/04/06 04:40:16;;;;;;;35.27;31.87;;;;;;;;;;5094512;28;20500;-88
2022/04/06 04:42:43;;;;;;;31.17;28.20;;;;;;;;;;5093138;28;20460;-88
2022/04/06 04:45:11;;;;;;;37.73;31.70;;;;;;;;;;5094165;28;20448;-88
2022/04/06 04:47:40;;;;;;;35.43;31.77;;;;;;;;;;5094161;28;20919;-88
2022/04/06 04:50:09;;;;;;;34.73;31.43;;;;;;;;;;5094425;28;20459;-88
2022/04/06 04:52:36;;;;;;;28.30;25.83;;;;;;;;;;5094299;28;20513;-88
2022/04/06 04:55:03;;;;;;;35.07;31.87;;;;;;;;;;5094187;28;20484;-88
2022/04/06 04:57:31;;;;;;;37.30;31.27;;;;;;;;;;5094222;28;20437;-88
2022/04/06 04:59:58;;;;;;;36.63;33.10;;;;;;;;;;5094444;28;20444;-87
2022/04/06 05:02:25;;;;;;;29.17;26.13;;;;;;;;;;5094118;28;20429;-87
2022/04/06 05:04:54;;;;;;;36.57;32.67;;;;;;;;;;5093997;28;20437;-87
2022/04/06 05:07:21;;;;;;;34.20;30.57;;;;;;;;;;5094171;28;20922;-87
2022/04/06 05:09:49;;;;;;;35.80;31.93;;;;;;;;;;5093990;28;20408;-86
2022/04/06 05:12:17;;;;;;;38.83;30.10;;;;;;;;;;5094077;28;20449;-87
2022/04/06 05:14:44;;;;;;;36.13;31.43;;;;;;;;;;5094088;28;20413;-87
2022/04/06 05:17:11;;;;;;;41.33;36.83;;;;;;;;;;5093633;28;20434;-87
2022/04/06 05:19:39;;;;;;;34.13;31.03;;;;;;;;;;5093656;28;20906;-87
2022/04/06 05:22:08;;;;;;;37.20;33.70;;;;;;;;;;5094127;28;20473;-90
2022/04/06 05:24:35;;;;;;;34.87;31.53;;;;;;;;;;5094303;28;20454;-93
2022/04/06 05:27:05;;;;;;;36.47;33.07;;;;;;;;;;5093955;28;20465;-93
2022/04/06 05:29:32;;;;;;;32.63;29.43;;;;;;;;;;5094574;28;20461;-91
2022/04/06 05:31:59;;;;;;;30.17;27.40;;;;;;;;;;5094017;28;20434;-92
2022/04/06 05:34:27;;;;;;;33.27;29.83;;;;;;;;;;5093847;28;20437;-92
2022/04/06 05:36:54;;;;;;;26.73;24.63;;;;;;;;;;5094030;28;20439;-92
2022/04/06 05:39:23;;;;;;;31.60;28.50;;;;;;;;;;5096890;28;20457;-93
2022/04/06 05:41:51;;;;;;;23.50;22.00;;;;;;;;;;5097624;28;20499;-92
2022/04/06 05:44:19;;;;;;;29.03;26.33;;;;;;;;;;5097764;28;20464;-92
2022/04/06 05:46:46;;;;;;;29.00;26.30;;;;;;;;;;5097689;28;20441;-92
2022/04/06 05:49:14;;;;;;;24.83;22.87;;;;;;;;;;5097465;28;20897;-90
2022/04/06 05:51:41;;;;;;;25.77;23.67;;;;;;;;;;5097615;28;20412;-93
2022/04/06 05:54:09;;;;;;;26.47;23.90;;;;;;;;;;5097545;28;20411;-92
2022/04/06 05:56:38;;;;;;;27.30;24.93;;;;;;;;;;5097145;28;20456;-92
2022/04/06 05:59:05;;;;;;;24.20;22.17;;;;;;;;;;5097658;28;20449;-93
2022/04/06 06:01:32;;;;;;;25.73;23.83;;;;;;;;;;5097215;28;20496;-92
2022/04/06 06:04:00;;;;;;;25.23;23.10;;;;;;;;;;5097869;28;20416;-92
2022/04/06 06:06:27;;;;;;;23.70;21.80;;;;;;;;;;5096694;28;20441;-92
2022/04/06 06:08:54;;;;;;;26.03;24.00;;;;;;;;;;5098109;28;20438;-93
2022/04/06 06:11:22;;;;;;;25.13;22.67;;;;;;;;;;5096758;28;20454;-91
2022/04/06 06:13:51;;;;;;;24.03;21.90;;;;;;;;;;5097058;28;20444;-92
2022/04/06 06:16:18;;;;;;;23.47;21.97;;;;;;;;;;5097494;28;20416;-90
2022/04/06 06:18:45;;;;;;;21.90;20.37;;;;;;;;;;5095949;28;20445;-91
2022/04/06 06:21:13;;;;;;;25.13;23.17;;;;;;;;;;5097072;28;20840;-91
2022/04/06 06:23:40;;;;;;;24.97;22.90;;;;;;;;;;5097095;28;20460;-89
2022/04/06 06:26:08;;;;;;;22.47;20.97;;;;;;;;;;5097223;28;20440;-93
2022/04/06 06:28:35;;;;;;;25.37;23.43;;;;;;;;;;5095909;28;20455;-94
2022/04/06 06:31:04;;;;;;;24.43;22.80;;;;;;;;;;5097078;28;20878;-94
2022/04/06 06:33:31;;;;;;;25.70;23.63;;;;;;;;;;5097011;28;20442;-92
2022/04/06 06:35:59;;;;;;;27.40;25.50;;;;;;;;;;5096816;28;20426;-93
2022/04/06 06:38:26;;;;;;;27.63;25.43;;;;;;;;;;5097104;27;20428;-94
2022/04/06 06:40:55;;;;;;;27.53;24.90;;;;;;;;;;5097003;28;20808;-93
2022/04/06 06:43:22;;;;;;;25.70;23.30;;;;;;;;;;5096270;28;20522;-91
2022/04/06 06:45:50;;;;;;;24.37;22.57;;;;;;;;;;5096584;28;20434;-92
2022/04/06 06:48:18;;;;;;;26.40;24.00;;;;;;;;;;5096725;28;20416;-92
2022/04/06 06:50:46;;;;;;;25.13;23.17;;;;;;;;;;5096445;28;20433;-90
2022/04/06 06:53:13;;;;;;;21.33;19.83;;;;;;;;;;5096456;28;20437;-89
2022/04/06 06:55:42;;;;;;;26.80;24.57;;;;;;;;;;5097519;28;20463;-92
2022/04/06 06:58:10;;;;;;;23.20;21.40;;;;;;;;;;5096484;28;20484;-93
2022/04/06 07:00:37;;;;;;;25.60;23.60;;;;;;;;;;5078402;28;20476;-93
2022/04/06 07:03:05;;;;;;;23.73;22.30;;;;;;;;;;5096360;28;20457;-93
2022/04/06 07:05:33;;;;;;;22.77;21.13;;;;;;;;;;5096337;28;20424;-92
2022/04/06 07:08:01;;;;;;;23.63;21.90;;;;;;;;;;5096502;28;20444;-92
2022/04/06 07:10:29;;;;;;;23.20;21.50;;;;;;;;;;5096226;28;20997;-93
2022/04/06 07:12:57;;;;;;;23.77;21.90;;;;;;;;;;5096091;28;20935;-93
2022/04/06 07:15:25;;;;;;;22.53;21.03;;;;;;;;;;5095949;28;20444;-92
2022/04/06 07:17:53;;;;;;;24.20;22.50;;;;;;;;;;5095930;28;20415;-90
2022/04/06 07:20:21;;;;;;;25.30;23.03;;;;;;;;;;5096065;28;20449;-91
2022/04/06 07:22:50;;;;;;;23.83;22.07;;;;;;;;;;5095699;28;20409;-91
2022/04/06 07:25:18;;;;;;;22.30;20.80;;;;;;;;;;5096077;28;20408;-91
2022/04/06 07:27:45;;;;;;;23.50;21.63;;;;;;;;;;5095048;28;20452;-89
2022/04/06 07:30:14;;;;;;;23.37;21.93;;;;;;;;;;5095848;28;20427;-89
2022/04/06 07:32:41;;;;;;;26.23;23.90;;;;;;;;;;5095937;28;20424;-90
2022/04/06 07:35:09;;;;;;;24.30;22.17;;;;;;;;;;5094515;28;20889;-89
2022/04/06 07:37:37;;;;;;;23.33;21.53;;;;;;;;;;5095677;28;20423;-89
2022/04/06 07:40:07;;;;;;;22.63;20.73;;;;;;;;;;5095409;28;20456;-89
2022/04/06 07:42:35;;;;;;;23.63;21.77;;;;;;;;;;5095597;28;20493;-89
2022/04/06 07:45:02;;;;;;;23.10;21.20;;;;;;;;;;5095612;28;20465;-89
2022/04/06 07:47:31;;;;;;;21.83;20.63;;;;;;;;;;5093311;28;20497;-84
2022/04/06 07:50:00;;;;;;;22.57;20.93;;;;;;;;;;5095557;28;20751;-87
2022/04/06 07:52:28;;;;;;;22.10;19.80;;;;;;;;;;5095089;28;20449;-88
2022/04/06 07:54:55;;;;;;;22.63;20.87;;;;;;;;;;5095014;28;20412;-89
2022/04/06 07:57:24;;;;;;;22.70;20.90;;;;;;;;;;5095282;28;20433;-90
2022/04/06 07:59:52;;;;;;;21.97;19.83;;;;;;;;;;5094910;28;20974;-89
2022/04/06 08:02:19;;;;;;;20.37;19.03;;;;;;;;;;5094826;28;20456;-94
2022/04/06 08:04:47;;;;;;;21.57;20.17;;;;;;;;;;5094127;28;20446;-86
2022/04/06 08:07:14;;;;;;;21.23;19.73;;;;;;;;;;5095137;28;20416;-93
2022/04/06 08:09:41;;;;;;;21.43;19.90;;;;;;;;;;5095499;28;20909;-86
2022/04/06 08:12:09;;;;;;;20.27;19.07;;;;;;;;;;5095394;28;20432;-92
2022/04/06 08:14:38;;;;;;;21.90;20.23;;;;;;;;;;5094759;28;20441;-91
2022/04/06 08:17:06;;;;;;;21.87;20.27;;;;;;;;;;5094921;28;20404;-93
2022/04/06 08:19:33;;;;;;;23.10;21.20;;;;;;;;;;5095517;28;20514;-93
2022/04/06 08:22:01;;;;;;;23.00;21.30;;;;;;;;;;5093734;28;20483;-93
2022/04/06 08:24:28;;;;;;;22.33;20.67;;;;;;;;;;5095243;28;20423;-94
2022/04/06 08:26:56;;;;;;;22.57;20.50;;;;;;;;;;5094977;28;20943;-96
2022/04/06 08:29:23;;;;;;;23.10;21.50;;;;;;;;;;5096454;28;20446;-96
2022/04/06 08:31:52;;;;;;;21.23;20.03;;;;;;;;;;5095674;28;20529;-91
2022/04/06 08:34:19;;;;;;;22.53;21.03;;;;;;;;;;5094620;28;20434;-83
2022/04/06 08:36:47;;;;;;;21.97;20.40;;;;;;;;;;5095347;28;20417;-92
2022/04/06 08:39:14;;;;;;;20.93;19.73;;;;;;;;;;5094917;28;20419;-94
2022/04/06 08:41:42;;;;;;;23.47;21.97;;;;;;;;;;5094999;28;20481;-93
2022/04/06 08:44:10;;;;;;;23.20;21.17;;;;;;;;;;5094586;28;20886;-85
2022/04/06 08:46:38;;;;;;;23.43;21.87;;;;;;;;;;5094796;28;20438;-89
2022/04/06 08:49:07;;;;;;;23.43;22.03;;;;;;;;;;5095008;28;20415;-88
2022/04/06 08:51:34;;;;;;;23.03;21.50;;;;;;;;;;5094379;28;20893;-89
2022/04/06 08:54:04;;;;;;;22.47;21.07;;;;;;;;;;5094761;28;20484;-91
2022/04/06 08:56:31;;;;;;;25.80;23.93;;;;;;;;;;5093138;28;21016;-92
2022/04/06 08:59:00;;;;;;;22.40;21.10;;;;;;;;;;5094967;28;20429;-86
2022/04/06 09:01:31;;;;;;;23.53;21.93;;;;;;;;;;5093644;28;20469;-90
2022/04/06 09:03:59;;;;;;;25.73;23.83;;;;;;;;;;5093303;28;20486;-85
2022/04/06 09:06:32;;;;;;;24.00;22.30;;;;;;;;;;5092222;28;20970;-85
2022/04/06 09:08:59;;;;;;;26.00;24.30;;;;;;;;;;5093294;28;20957;-84
2022/04/06 09:11:29;;;;;;;23.10;21.50;;;;;;;;;;5093652;28;20416;-85
2022/04/06 09:13:59;;;;;;;26.17;24.03;;;;;;;;;;5097923;28;20426;-85
2022/04/06 09:16:28;;;;;;;23.20;21.47;;;;;;;;;;5096775;28;20441;-87
2022/04/06 09:18:56;;;;;;;22.53;20.83;;;;;;;;;;5096886;28;20477;-88
2022/04/06 09:21:24;;;;;;;22.73;21.03;;;;;;;;;;5098247;27;20485;-85
2022/04/06 09:23:52;;;;;;;23.90;21.93;;;;;;;;;;5098357;28;20423;-95
2022/04/06 09:26:21;;;;;;;21.53;20.13;;;;;;;;;;5097453;28;20420;-87
2022/04/06 09:28:49;;;;;;;21.57;20.13;;;;;;;;;;5097920;28;20513;-87
2022/04/06 09:31:17;;;;;;;21.13;19.93;;;;;;;;;;5098100;28;20787;-87
2022/04/06 09:33:56;;;;;;;23.37;21.60;;;;;;;;;;5085952;28;20823;-90
2022/04/06 09:36:23;;;;;;;21.97;20.47;;;;;;;;;;5079533;28;20432;-91
2022/04/06 09:38:51;;;;;;;22.57;20.87;;;;;;;;;;5077428;28;20443;-88
2022/04/06 09:41:20;;;;;;;21.20;19.93;;;;;;;;;;5077211;28;20407;-90
2022/04/06 09:43:48;;;;;;;20.90;19.70;;;;;;;;;;5077605;28;20428;-92
2022/04/06 09:49:08;;;;;;;24.63;23.03;;;;;;;;;;5077278;28;20404;-91
2022/04/06 09:51:36;;;;;;;22.57;21.07;;;;;;;;;;5076515;28;20454;-92
2022/04/06 09:54:04;;;;;;;24.77;23.17;;;;;;;;;;5077241;28;20413;-95
2022/04/06 09:56:33;;;;;;;25.90;23.93;;;;;;;;;;5079426;23;20498;-87
2022/04/06 09:59:02;;;;;;;25.23;23.20;;;;;;;;;;5036947;28;20938;-87
2022/04/06 10:01:32;;;;;;;21.57;20.23;;;;;;;;;;5037225;28;20449;-90
2022/04/06 10:04:02;;;;;;;23.60;22.17;;;;;;;;;;5036987;28;20467;-91
2022/04/06 10:06:31;;;;;;;25.10;23.30;;;;;;;;;;5037693;28;20888;-87
2022/04/06 10:08:59;;;;;;;21.63;20.27;;;;;;;;;;5036834;28;20462;-87
2022/04/06 10:11:27;;;;;;;21.37;20.17;;;;;;;;;;5037355;28;20914;-86
2022/04/06 10:13:57;;;;;;;24.00;22.30;;;;;;;;;;5036435;28;20426;-86
2022/04/06 10:16:24;;;;;;;23.00;21.03;;;;;;;;;;5036786;28;20498;-89
2022/04/06 10:18:53;;;;;;;23.03;21.23;;;;;;;;;;5036867;28;20432;-91
2022/04/06 10:21:23;;;;;;;23.07;21.47;;;;;;;;;;5036651;28;20454;-94
2022/04/06 10:23:55;;;;;;;23.33;21.80;;;;;;;;;;5036324;28;20896;-94
2022/04/06 10:26:34;;;;;;;23.80;22.20;;;;;;;;;;5037159;28;20430;-94
2022/04/06 10:29:05;;;;;;;21.70;20.37;;;;;;;;;;5036667;28;20944;-93
2022/04/06 10:31:33;;;;;;;22.47;20.77;;;;;;;;;;5036844;28;20798;-89
2022/04/06 10:34:20;;;;;;;21.27;20.07;;;;;;;;;;5036569;28;20933;-88
2022/04/06 10:37:05;;;;;;;23.57;21.83;;;;;;;;;;5036831;28;20438;-87
2022/04/06 10:39:33;;;;;;;21.57;20.37;;;;;;;;;;5036749;28;20422;-86
2022/04/06 10:42:17;;;;;;;22.80;21.20;;;;;;;;;;5036414;28;20976;-89
2022/04/06 10:44:46;;;;;;;23.03;21.43;;;;;;;;;;5036272;28;20449;-90
2022/04/06 10:47:14;;;;;;;23.27;21.60;;;;;;;;;;5036430;28;20415;-86
2022/04/06 10:49:41;;;;;;;21.57;20.17;;;;;;;;;;5037123;28;20447;-86
2022/04/06 10:52:26;;;;;;;21.50;20.20;;;;;;;;;;5036588;28;20455;-88
2022/04/06 10:54:54;;;;;;;22.37;20.77;;;;;;;;;;5018234;28;20429;-93
2022/04/06 10:57:22;;;;;;;21.50;20.20;;;;;;;;;;5035612;28;20512;-85
2022/04/06 11:00:07;;;;;;;23.37;21.77;;;;;;;;;;5036030;28;20438;-87
2022/04/06 11:02:47;;;;;;;21.80;20.60;;;;;;;;;;5035694;28;20463;-85
2022/04/06 11:05:14;;;;;;;21.03;19.80;;;;;;;;;;5035829;28;20938;-85
2022/04/06 11:10:30;;;;;;;22.50;20.77;;;;;;;;;;5035512;28;20423;-85
2022/04/06 11:12:59;;;;;;;21.47;20.17;;;;;;;;;;5036165;28;20233;-90
2022/04/06 11:15:41;;;;;;;21.47;20.10;;;;;;;;;;5036364;28;20485;-85
2022/04/06 11:18:32;;;;;;;23.07;21.70;;;;;;;;;;5036238;28;20448;-87
2022/04/06 11:21:03;;;;;;;22.30;20.80;;;;;;;;;;5036071;28;20431;-85
2022/04/06 11:23:30;;;;;;;22.57;21.03;;;;;;;;;;5036781;28;20804;-87
2022/04/06 11:25:59;;;;;;;20.47;19.30;;;;;;;;;;5036762;28;20451;-96
2022/04/06 11:28:29;;;;;;;21.17;19.90;;;;;;;;;;5035490;28;20450;-91
2022/04/06 11:30:57;;;;;;;21.93;20.67;;;;;;;;;;5035918;28;20490;-94
2022/04/06 11:33:38;;;;;;;22.40;20.90;;;;;;;;;;5018714;28;20453;-87
2022/04/06 11:36:12;;;;;;;21.73;20.40;;;;;;;;;;5034775;28;20518;-89
2022/04/06 11:38:40;;;;;;;20.53;19.33;;;;;;;;;;5017437;28;20427;-87
2022/04/06 11:41:07;;;;;;;21.20;19.90;;;;;;;;;;5035217;28;20475;-87
2022/04/06 11:43:38;;;;;;;21.37;20.07;;;;;;;;;;5016945;28;20498;-84
2022/04/06 11:46:05;;;;;;;21.87;20.53;;;;;;;;;;5035097;28;20444;-87
2022/04/06 11:48:41;;;;;;;20.67;19.47;;;;;;;;;;5034663;28;20436;-86
2022/04/06 11:51:09;;;;;;;22.77;21.27;;;;;;;;;;5017181;28;20469;-87
2022/04/06 11:53:37;;;;;;;22.13;20.83;;;;;;;;;;5018000;28;20812;-86
2022/04/06 11:56:05;;;;;;;23.13;21.60;;;;;;;;;;5017007;28;20480;-86
2022/04/06 11:58:33;;;;;;;21.43;19.90;;;;;;;;;;5035044;28;20462;-87
2022/04/06 12:01:01;;;;;;;22.43;20.93;;;;;;;;;;5034743;28;20422;-87
2022/04/06 12:03:29;;;;;;;21.83;20.53;;;;;;;;;;5034234;28;20465;-86
2022/04/06 12:05:58;;;;;;;21.07;19.87;;;;;;;;;;5034674;28;20415;-81
2022/04/06 12:08:25;;;;;;;20.63;19.53;;;;;;;;;;5034535;28;20414;-86
2022/04/06 12:10:53;;;;;;;22.13;20.60;;;;;;;;;;5034271;28;20949;-85
2022/04/06 12:13:21;;;;;;;22.83;20.97;;;;;;;;;;5033847;28;20415;-90
2022/04/06 12:15:49;;;;;;;21.90;20.50;;;;;;;;;;5034675;28;20954;-90
2022/04/06 12:18:18;;;;;;;20.73;19.30;;;;;;;;;;5035279;28;20415;-91
2022/04/06 12:20:46;;;;;;;21.90;20.60;;;;;;;;;;5034990;28;20423;-89
2022/04/06 12:23:15;;;;;;;21.93;20.50;;;;;;;;;;5034164;28;20487;-89
2022/04/06 12:25:43;;;;;;;21.53;20.13;;;;;;;;;;5016878;28;20452;-90
2022/04/06 12:28:11;;;;;;;22.40;21.00;;;;;;;;;;5034511;28;20455;-89
2022/04/06 12:30:51;;;;;;;21.43;20.23;;;;;;;;;;5034372;28;20460;-89
2022/04/06 12:33:32;;;;;;;23.27;21.27;;;;;;;;;;5017088;28;20452;-87
2022/04/06 12:36:05;;;;;;;22.93;21.43;;;;;;;;;;5034589;28;20410;-89
2022/04/06 12:38:35;;;;;;;23.00;21.60;;;;;;;;;;5034188;28;20935;-87
2022/04/06 12:41:06;;;;;;;25.93;23.87;;;;;;;;;;5033772;28;21048;-86
2022/04/06 12:43:37;;;;;;;24.13;22.63;;;;;;;;;;5033861;28;20821;-88
2022/04/06 12:46:04;;;;;;;24.90;23.33;;;;;;;;;;5033965;28;20436;-87
2022/04/06 12:48:32;;;;;;;24.23;22.53;;;;;;;;;;5033417;28;20430;-87
2022/04/06 12:50:59;;;;;;;27.50;25.77;;;;;;;;;;5034098;28;20452;-87
2022/04/06 12:53:27;;;;;;;24.70;22.97;;;;;;;;;;5034118;28;20543;-87
2022/04/06 12:56:15;;;;;;;25.47;23.80;;;;;;;;;;5016225;28;20431;-86
2022/04/06 12:58:44;;;;;;;25.53;23.90;;;;;;;;;;5034043;28;20403;-88
2022/04/06 13:01:13;;;;;;;23.63;22.13;;;;;;;;;;5033621;28;20800;-88
2022/04/06 13:03:41;;;;;;;27.83;25.83;;;;;;;;;;5033729;28;21011;-88
2022/04/06 13:06:08;;;;;;;24.97;23.27;;;;;;;;;;5033948;28;20446;-88
2022/04/06 13:08:36;;;;;;;25.97;24.30;;;;;;;;;;5016133;28;20506;-88
2022/04/06 13:11:04;;;;;;;22.40;21.10;;;;;;;;;;5033044;28;20456;-86
2022/04/06 13:13:33;;;;;;;26.33;24.40;;;;;;;;;;5033645;28;20455;-88
2022/04/06 13:16:00;;;;;;;22.80;21.17;;;;;;;;;;5033766;28;20907;-88
2022/04/06 13:18:28;;;;;;;24.60;23.00;;;;;;;;;;5034047;28;20418;-88
2022/04/06 13:20:55;;;;;;;25.97;24.13;;;;;;;;;;5034056;28;20414;-89
2022/04/06 13:23:23;;;;;;;23.80;22.20;;;;;;;;;;5016272;28;20470;-88
2022/04/06 13:25:51;;;;;;;25.23;23.53;;;;;;;;;;5034051;28;20476;-88
2022/04/06 13:28:19;;;;;;;26.27;24.40;;;;;;;;;;5016165;28;20949;-88
2022/04/06 13:30:48;;;;;;;24.03;22.50;;;;;;;;;;5033599;28;20440;-89
2022/04/06 13:33:15;;;;;;;25.03;23.13;;;;;;;;;;5033975;28;20423;-89
2022/04/06 13:35:43;;;;;;;25.63;23.97;;;;;;;;;;5034049;28;20415;-89
2022/04/06 13:38:10;;;;;;;25.00;22.90;;;;;;;;;;5033858;28;20426;-89
2022/04/06 13:40:38;;;;;;;25.93;24.13;;;;;;;;;;5033904;28;20426;-89
2022/04/06 13:43:05;;;;;;;23.73;22.03;;;;;;;;;;5033732;28;20480;-89
2022/04/06 13:45:33;;;;;;;24.33;22.83;;;;;;;;;;5016404;28;20434;-89
2022/04/06 13:48:01;;;;;;;23.23;21.60;;;;;;;;;;5033863;28;20436;-89
2022/04/06 13:50:29;;;;;;;25.50;23.70;;;;;;;;;;5034201;28;20449;-88
2022/04/06 13:52:56;;;;;;;25.33;23.60;;;;;;;;;;5033960;28;21007;-92
2022/04/06 13:55:24;;;;;;;21.92;20.63;;;;;;;;;;5033500;28;20647;-89
2022/04/06 13:57:52;;;;;;;23.50;22.00;;;;;;;;;;5033199;28;20237;-89
2022/04/06 14:00:20;;;;;;;23.17;21.77;;;;;;;;;;5036162;28;20415;-90
2022/04/06 14:02:49;;;;;;;25.80;24.17;;;;;;;;;;5037138;28;20426;-89
2022/04/06 14:05:19;;;;;;;24.70;22.93;;;;;;;;;;5037306;28;20471;-89
2022/04/06 14:07:47;;;;;;;23.33;21.93;;;;;;;;;;5019541;28;20427;-89
2022/04/06 14:10:15;;;;;;;23.73;22.10;;;;;;;;;;5019377;28;20472;-89
2022/04/06 14:12:42;;;;;;;21.60;20.20;;;;;;;;;;5036909;28;20437;-89
2022/04/06 14:15:10;;;;;;;20.83;19.43;;;;;;;;;;5037039;28;20958;-89
2022/04/06 14:17:37;;;;;;;22.00;20.60;;;;;;;;;;5019225;28;20414;-89
2022/04/06 14:20:05;;;;;;;21.70;20.50;;;;;;;;;;5036801;28;20403;-87
2022/04/06 14:22:34;;;;;;;20.40;19.20;;;;;;;;;;5036904;28;20442;-96
2022/04/06 14:25:19;;;;;;;22.10;20.73;;;;;;;;;;5019280;28;20423;-88
2022/04/06 14:27:47;;;;;;;21.57;20.33;;;;;;;;;;5036262;28;20453;-88
2022/04/06 14:30:15;;;;;;;24.87;23.33;;;;;;;;;;5036192;28;20425;-88
2022/04/06 14:32:42;;;;;;;23.93;22.43;;;;;;;;;;5036319;28;20915;-88